sensor_id;sensor_type;location;lat;lon;timestamp;pressure;altitude;pressure_sealevel;temperature;humidity
71344;BME280;59146;43.850;25.948;2023-05-17T00:01:45;100636.38;;;17.64;55.58
71344;BME280;59146;43.850;25.948;2023-05-17T00:04:11;100550.03;;;17.15;55.84
71344;BME280;59146;43.850;25.948;2023-05-17T00:06:37;100433.91;;;16.45;55.99
71344;BME280;59146;43.850;25.948;2023-05-17T00:09:02;100451.13;;;16.49;56.09
71344;BME280;59146;43.850;25.948;2023-05-17T00:11:28;100502.53;;;16.54;56.53
71344;BME280;59146;43.850;25.948;2023-05-17T00:13:53;100531.19;;;16.68;56.88
71344;BME280;59146;43.850;25.948;2023-05-17T00:16:18;100578.25;;;16.94;57.24
71344;BME280;59146;43.850;25.948;2023-05-17T00:18:44;100600.59;;;17.20;56.95
71344;BME280;59146;43.850;25.948;2023-05-17T00:21:09;100586.53;;;17.10;56.83
71344;BME280;59146;43.850;25.948;2023-05-17T00:23:35;100568.88;;;17.01;57.10
71344;BME280;59146;43.850;25.948;2023-05-17T00:26:00;100557.22;;;16.83;57.20
71344;BME280;59146;43.850;25.948;2023-05-17T00:28:26;100586.09;;;17.05;57.06
71344;BME280;59146;43.850;25.948;2023-05-17T00:30:51;100594.03;;;17.05;57.18
71344;BME280;59146;43.850;25.948;2023-05-17T00:33:16;100665.78;;;17.50;56.88
71344;BME280;59146;43.850;25.948;2023-05-17T00:35:42;100605.00;;;17.10;57.31
71344;BME280;59146;43.850;25.948;2023-05-17T00:38:07;100607.44;;;16.92;58.71
71344;BME280;59146;43.850;25.948;2023-05-17T00:40:33;100654.91;;;17.13;59.63
71344;BME280;59146;43.850;25.948;2023-05-17T00:42:58;100597.19;;;16.78;60.59
71344;BME280;59146;43.850;25.948;2023-05-17T00:45:23;100595.06;;;16.51;61.49
71344;BME280;59146;43.850;25.948;2023-05-17T00:47:49;100604.41;;;16.44;62.43
71344;BME280;59146;43.850;25.948;2023-05-17T00:50:14;100639.00;;;16.62;62.74
71344;BME280;59146;43.850;25.948;2023-05-17T00:52:40;100593.41;;;16.19;63.60
71344;BME280;59146;43.850;25.948;2023-05-17T00:55:06;100617.88;;;16.10;64.95
71344;BME280;59146;43.850;25.948;2023-05-17T00:57:31;100625.22;;;15.95;65.26
71344;BME280;59146;43.850;25.948;2023-05-17T00:59:57;100496.84;;;15.11;66.74
71344;BME280;59146;43.850;25.948;2023-05-17T01:02:23;100634.03;;;16.05;66.59
71344;BME280;59146;43.850;25.948;2023-05-17T01:04:49;100571.69;;;15.52;66.80
71344;BME280;59146;43.850;25.948;2023-05-17T01:07:15;100610.66;;;15.69;67.54
71344;BME280;59146;43.850;25.948;2023-05-17T01:09:42;100624.06;;;15.77;66.95
71344;BME280;59146;43.850;25.948;2023-05-17T01:15:18;100679.31;;;16.10;67.56
71344;BME280;59146;43.850;25.948;2023-05-17T01:17:57;100680.75;;;16.03;67.78
71344;BME280;59146;43.850;25.948;2023-05-17T01:20:27;100696.13;;;15.98;68.41
71344;BME280;59146;43.850;25.948;2023-05-17T01:28:20;100633.88;;;15.42;69.35
71344;BME280;59146;43.850;25.948;2023-05-17T01:30:49;100706.66;;;15.65;69.77
71344;BME280;59146;43.850;25.948;2023-05-17T01:33:15;100675.97;;;15.42;70.75
71344;BME280;59146;43.850;25.948;2023-05-17T01:35:41;100509.97;;;14.45;70.52
71344;BME280;59146;43.850;25.948;2023-05-17T01:38:07;100702.13;;;15.56;71.51
71344;BME280;59146;43.850;25.948;2023-05-17T01:40:34;100656.13;;;15.27;70.97
71344;BME280;59146;43.850;25.948;2023-05-17T01:43:09;100610.31;;;15.07;72.54
71344;BME280;59146;43.850;25.948;2023-05-17T01:48:50;100623.81;;;15.13;73.31
71344;BME280;59146;43.850;25.948;2023-05-17T01:51:19;100642.72;;;15.30;73.34
71344;BME280;59146;43.850;25.948;2023-05-17T01:53:56;100597.72;;;14.88;73.78
71344;BME280;59146;43.850;25.948;2023-05-17T01:56:27;100510.47;;;14.26;74.36
71344;BME280;59146;43.850;25.948;2023-05-17T01:58:58;100573.53;;;14.61;74.77
71344;BME280;59146;43.850;25.948;2023-05-17T02:01:27;100583.34;;;14.59;75.64
71344;BME280;59146;43.850;25.948;2023-05-17T02:03:53;100612.28;;;14.81;76.01
71344;BME280;59146;43.850;25.948;2023-05-17T02:06:18;100573.53;;;14.61;75.54
71344;BME280;59146;43.850;25.948;2023-05-17T02:08:43;100568.50;;;14.58;75.51
71344;BME280;59146;43.850;25.948;2023-05-17T02:11:09;100605.13;;;14.83;75.35
71344;BME280;59146;43.850;25.948;2023-05-17T02:13:34;100611.63;;;15.01;76.00
71344;BME280;59146;43.850;25.948;2023-05-17T02:16:03;100603.72;;;14.90;75.29
71344;BME280;59146;43.850;25.948;2023-05-17T02:18:29;100591.25;;;14.81;76.28
71344;BME280;59146;43.850;25.948;2023-05-17T02:20:56;100429.69;;;13.95;74.85
71344;BME280;59146;43.850;25.948;2023-05-17T02:23:22;100537.47;;;14.74;75.32
71344;BME280;59146;43.850;25.948;2023-05-17T02:25:49;100492.16;;;14.49;74.75
71344;BME280;59146;43.850;25.948;2023-05-17T02:28:15;100476.00;;;14.31;74.40
71344;BME280;59146;43.850;25.948;2023-05-17T02:30:40;100547.88;;;14.76;74.40
71344;BME280;59146;43.850;25.948;2023-05-17T02:33:07;100592.22;;;14.91;74.86
71344;BME280;59146;43.850;25.948;2023-05-17T02:35:32;100523.81;;;14.47;75.22
71344;BME280;59146;43.850;25.948;2023-05-17T02:37:58;100507.19;;;14.36;75.27
71344;BME280;59146;43.850;25.948;2023-05-17T02:40:24;100580.84;;;14.69;75.78
71344;BME280;59146;43.850;25.948;2023-05-17T02:42:49;100539.06;;;14.31;76.66
71344;BME280;59146;43.850;25.948;2023-05-17T02:45:15;100592.38;;;14.44;77.64
71344;BME280;59146;43.850;25.948;2023-05-17T02:47:40;100622.44;;;14.75;77.21
71344;BME280;59146;43.850;25.948;2023-05-17T02:50:07;100490.59;;;13.77;78.14
71344;BME280;59146;43.850;25.948;2023-05-17T02:52:32;100560.47;;;14.14;79.23
71344;BME280;59146;43.850;25.948;2023-05-17T02:54:57;100570.94;;;14.03;81.01
71344;BME280;59146;43.850;25.948;2023-05-17T02:57:23;100590.13;;;14.03;82.20
71344;BME280;59146;43.850;25.948;2023-05-17T02:59:48;100612.22;;;14.01;83.88
71344;BME280;59146;43.850;25.948;2023-05-17T03:02:14;100578.59;;;13.82;85.29
71344;BME280;59146;43.850;25.948;2023-05-17T03:04:39;100581.56;;;13.78;86.29
71344;BME280;59146;43.850;25.948;2023-05-17T03:07:05;100557.66;;;13.70;86.40
71344;BME280;59146;43.850;25.948;2023-05-17T03:09:30;100582.16;;;13.81;87.50
71344;BME280;59146;43.850;25.948;2023-05-17T03:11:56;100567.66;;;13.88;87.10
71344;BME280;59146;43.850;25.948;2023-05-17T03:14:21;100603.50;;;14.00;86.90
71344;BME280;59146;43.850;25.948;2023-05-17T03:16:47;100592.16;;;14.00;87.74
71344;BME280;59146;43.850;25.948;2023-05-17T03:19:12;100609.31;;;14.16;87.89
71344;BME280;59146;43.850;25.948;2023-05-17T03:21:37;100608.09;;;14.09;88.08
71344;BME280;59146;43.850;25.948;2023-05-17T03:24:03;100598.47;;;13.97;87.92
71344;BME280;59146;43.850;25.948;2023-05-17T03:26:28;100571.09;;;13.89;88.27
71344;BME280;59146;43.850;25.948;2023-05-17T03:28:56;100516.72;;;13.67;87.91
71344;BME280;59146;43.850;25.948;2023-05-17T03:31:21;100571.41;;;14.08;87.46
71344;BME280;59146;43.850;25.948;2023-05-17T03:33:47;100576.78;;;14.06;87.34
71344;BME280;59146;43.850;25.948;2023-05-17T03:36:12;100559.97;;;14.09;87.09
71344;BME280;59146;43.850;25.948;2023-05-17T03:38:38;100565.41;;;13.95;86.82
71344;BME280;59146;43.850;25.948;2023-05-17T03:41:03;100564.00;;;14.02;87.01
71344;BME280;59146;43.850;25.948;2023-05-17T03:43:29;100590.47;;;14.22;86.79
71344;BME280;59146;43.850;25.948;2023-05-17T03:45:55;100586.56;;;14.28;86.19
71344;BME280;59146;43.850;25.948;2023-05-17T03:48:20;100550.47;;;14.19;85.64
71344;BME280;59146;43.850;25.948;2023-05-17T03:50:45;100558.56;;;14.40;84.66
71344;BME280;59146;43.850;25.948;2023-05-17T03:53:11;100575.44;;;14.59;84.79
71344;BME280;59146;43.850;25.948;2023-05-17T03:55:36;100553.94;;;14.54;84.70
71344;BME280;59146;43.850;25.948;2023-05-17T03:58:02;100543.53;;;14.53;84.43
71344;BME280;59146;43.850;25.948;2023-05-17T04:00:27;100548.91;;;14.51;83.93
71344;BME280;59146;43.850;25.948;2023-05-17T04:02:52;100540.41;;;14.48;83.84
71344;BME280;59146;43.850;25.948;2023-05-17T04:05:18;100555.53;;;14.33;84.93
71344;BME280;59146;43.850;25.948;2023-05-17T04:07:44;100596.91;;;14.42;86.21
71344;BME280;59146;43.850;25.948;2023-05-17T04:10:10;100621.94;;;14.59;85.42
71344;BME280;59146;43.850;25.948;2023-05-17T04:12:35;100606.81;;;14.39;85.81
71344;BME280;59146;43.850;25.948;2023-05-17T04:15:02;100654.41;;;14.92;85.44
71344;BME280;59146;43.850;25.948;2023-05-17T04:17:28;100626.63;;;14.77;85.18
71344;BME280;59146;43.850;25.948;2023-05-17T04:19:53;100639.78;;;14.77;86.03
71344;BME280;59146;43.850;25.948;2023-05-17T04:22:19;100600.31;;;14.66;85.11
71344;BME280;59146;43.850;25.948;2023-05-17T04:24:45;100580.13;;;14.67;85.31
71344;BME280;59146;43.850;25.948;2023-05-17T04:27:11;100590.53;;;14.79;84.39
71344;BME280;59146;43.850;25.948;2023-05-17T04:29:36;100616.41;;;15.07;83.74
71344;BME280;59146;43.850;25.948;2023-05-17T04:32:02;100622.97;;;15.13;83.34
71344;BME280;59146;43.850;25.948;2023-05-17T04:34:27;100643.69;;;15.18;84.26
71344;BME280;59146;43.850;25.948;2023-05-17T04:36:53;100635.31;;;15.24;84.32
71344;BME280;59146;43.850;25.948;2023-05-17T04:39:19;100603.59;;;14.92;84.28
71344;BME280;59146;43.850;25.948;2023-05-17T04:41:44;100616.38;;;14.96;84.95
71344;BME280;59146;43.850;25.948;2023-05-17T04:44:10;100625.97;;;15.08;85.59
71344;BME280;59146;43.850;25.948;2023-05-17T04:46:36;100621.66;;;14.96;84.44
71344;BME280;59146;43.850;25.948;2023-05-17T04:49:02;100594.22;;;14.77;85.40
71344;BME280;59146;43.850;25.948;2023-05-17T04:51:30;100681.59;;;15.15;86.58
71344;BME280;59146;43.850;25.948;2023-05-17T04:53:56;100607.63;;;14.74;87.91
71344;BME280;59146;43.850;25.948;2023-05-17T04:56:25;100616.72;;;14.70;87.99
71344;BME280;59146;43.850;25.948;2023-05-17T04:58:50;100679.31;;;15.22;89.67
71344;BME280;59146;43.850;25.948;2023-05-17T05:01:17;100656.34;;;15.24;88.26
71344;BME280;59146;43.850;25.948;2023-05-17T05:03:43;100676.47;;;15.36;86.92
71344;BME280;59146;43.850;25.948;2023-05-17T05:06:08;100633.41;;;15.26;87.58
71344;BME280;59146;43.850;25.948;2023-05-17T05:08:34;100555.41;;;14.69;87.56
71344;BME280;59146;43.850;25.948;2023-05-17T05:10:59;100634.94;;;15.17;88.09
71344;BME280;59146;43.850;25.948;2023-05-17T05:13:24;100561.00;;;14.65;87.55
71344;BME280;59146;43.850;25.948;2023-05-17T05:15:50;100573.66;;;14.71;88.81
71344;BME280;59146;43.850;25.948;2023-05-17T05:18:15;100632.44;;;15.16;89.16
71344;BME280;59146;43.850;25.948;2023-05-17T05:20:42;100620.59;;;15.10;90.52
71344;BME280;59146;43.850;25.948;2023-05-17T05:23:07;100611.59;;;14.90;90.65
71344;BME280;59146;43.850;25.948;2023-05-17T05:25:33;100560.75;;;14.57;90.89
71344;BME280;59146;43.850;25.948;2023-05-17T05:27:58;100630.81;;;14.80;91.34
71344;BME280;59146;43.850;25.948;2023-05-17T05:30:24;100629.03;;;14.80;91.83
71344;BME280;59146;43.850;25.948;2023-05-17T05:32:50;100667.75;;;14.78;92.27
71344;BME280;59146;43.850;25.948;2023-05-17T05:35:16;100611.31;;;14.71;94.36
71344;BME280;59146;43.850;25.948;2023-05-17T05:37:42;100609.22;;;14.98;92.46
71344;BME280;59146;43.850;25.948;2023-05-17T05:40:09;100599.19;;;15.03;90.41
71344;BME280;59146;43.850;25.948;2023-05-17T05:42:34;100605.66;;;15.22;88.88
71344;BME280;59146;43.850;25.948;2023-05-17T05:45:00;100684.75;;;15.75;88.27
71344;BME280;59146;43.850;25.948;2023-05-17T05:47:25;100602.53;;;15.28;87.73
71344;BME280;59146;43.850;25.948;2023-05-17T05:49:51;100674.34;;;15.63;87.69
71344;BME280;59146;43.850;25.948;2023-05-17T05:52:16;100625.06;;;15.54;87.82
71344;BME280;59146;43.850;25.948;2023-05-17T05:54:42;100676.94;;;15.96;86.54
71344;BME280;59146;43.850;25.948;2023-05-17T05:57:08;100542.97;;;15.16;85.04
71344;BME280;59146;43.850;25.948;2023-05-17T05:59:33;100673.13;;;16.00;86.03
71344;BME280;59146;43.850;25.948;2023-05-17T06:01:59;100652.28;;;15.97;85.65
71344;BME280;59146;43.850;25.948;2023-05-17T06:04:24;100698.22;;;16.15;85.17
71344;BME280;59146;43.850;25.948;2023-05-17T06:06:50;100672.50;;;15.97;85.29
71344;BME280;59146;43.850;25.948;2023-05-17T06:09:16;100692.78;;;15.85;85.99
71344;BME280;59146;43.850;25.948;2023-05-17T06:11:42;100726.84;;;16.20;86.78
71344;BME280;59146;43.850;25.948;2023-05-17T06:14:07;100663.53;;;15.99;86.49
71344;BME280;59146;43.850;25.948;2023-05-17T06:16:33;100702.59;;;16.37;85.88
71344;BME280;59146;43.850;25.948;2023-05-17T06:18:59;100559.47;;;15.51;85.29
71344;BME280;59146;43.850;25.948;2023-05-17T06:21:24;100683.50;;;16.44;85.63
71344;BME280;59146;43.850;25.948;2023-05-17T06:23:50;100686.13;;;16.55;84.53
71344;BME280;59146;43.850;25.948;2023-05-17T06:26:15;100693.84;;;16.79;84.23
71344;BME280;59146;43.850;25.948;2023-05-17T06:28:41;100669.44;;;16.87;83.29
71344;BME280;59146;43.850;25.948;2023-05-17T06:31:06;100694.53;;;17.02;82.68
71344;BME280;59146;43.850;25.948;2023-05-17T06:33:32;100655.22;;;16.78;82.27
71344;BME280;59146;43.850;25.948;2023-05-17T06:35:57;100713.09;;;17.32;81.30
71344;BME280;59146;43.850;25.948;2023-05-17T06:38:23;100658.16;;;17.05;81.42
71344;BME280;59146;43.850;25.948;2023-05-17T06:40:55;100736.22;;;17.49;80.74
71344;BME280;59146;43.850;25.948;2023-05-17T06:43:21;100674.13;;;17.04;79.47
71344;BME280;59146;43.850;25.948;2023-05-17T06:45:47;100650.97;;;16.66;80.69
71344;BME280;59146;43.850;25.948;2023-05-17T06:48:12;100681.88;;;16.75;79.91
71344;BME280;59146;43.850;25.948;2023-05-17T06:50:38;100675.72;;;16.54;79.07
71344;BME280;59146;43.850;25.948;2023-05-17T06:53:03;100731.72;;;16.78;79.51
71344;BME280;59146;43.850;25.948;2023-05-17T06:55:29;100647.38;;;16.35;79.06
71344;BME280;59146;43.850;25.948;2023-05-17T06:57:55;100700.72;;;16.71;78.95
71344;BME280;59146;43.850;25.948;2023-05-17T07:00:20;100689.78;;;16.32;78.63
71344;BME280;59146;43.850;25.948;2023-05-17T07:02:46;100690.28;;;16.26;80.50
71344;BME280;59146;43.850;25.948;2023-05-17T07:05:11;100672.81;;;16.25;79.55
71344;BME280;59146;43.850;25.948;2023-05-17T07:07:37;100692.63;;;16.40;78.75
71344;BME280;59146;43.850;25.948;2023-05-17T07:10:04;100705.41;;;16.67;78.10
71344;BME280;59146;43.850;25.948;2023-05-17T07:12:30;100679.41;;;16.62;78.15
71344;BME280;59146;43.850;25.948;2023-05-17T07:14:55;100725.41;;;16.69;78.38
71344;BME280;59146;43.850;25.948;2023-05-17T07:17:21;100718.00;;;16.63;79.37
71344;BME280;59146;43.850;25.948;2023-05-17T07:19:46;100712.84;;;16.62;80.19
71344;BME280;59146;43.850;25.948;2023-05-17T07:22:18;100706.03;;;16.59;80.00
71344;BME280;59146;43.850;25.948;2023-05-17T07:24:44;100651.38;;;16.19;80.04
71344;BME280;59146;43.850;25.948;2023-05-17T07:27:10;100709.78;;;16.35;81.94
71344;BME280;59146;43.850;25.948;2023-05-17T07:29:36;100689.38;;;16.48;82.33
71344;BME280;59146;43.850;25.948;2023-05-17T07:32:02;100663.91;;;16.37;81.63
71344;BME280;59146;43.850;25.948;2023-05-17T07:34:29;100678.75;;;16.38;81.52
71344;BME280;59146;43.850;25.948;2023-05-17T07:36:55;100739.25;;;16.83;82.58
71344;BME280;59146;43.850;25.948;2023-05-17T07:39:20;100742.41;;;16.77;82.60
71344;BME280;59146;43.850;25.948;2023-05-17T07:41:45;100710.28;;;16.72;82.63
71344;BME280;59146;43.850;25.948;2023-05-17T07:44:11;100718.47;;;16.68;82.21
71344;BME280;59146;43.850;25.948;2023-05-17T07:46:36;100731.13;;;16.75;82.40
71344;BME280;59146;43.850;25.948;2023-05-17T07:49:02;100717.03;;;16.64;82.71
71344;BME280;59146;43.850;25.948;2023-05-17T07:51:27;100691.88;;;16.60;84.37
71344;BME280;59146;43.850;25.948;2023-05-17T07:53:53;100684.72;;;16.51;83.66
71344;BME280;59146;43.850;25.948;2023-05-17T07:56:18;100714.38;;;16.76;84.25
71344;BME280;59146;43.850;25.948;2023-05-17T07:58:43;100696.00;;;16.74;83.64
71344;BME280;59146;43.850;25.948;2023-05-17T08:01:09;100693.44;;;16.63;83.27
71344;BME280;59146;43.850;25.948;2023-05-17T08:03:35;100710.41;;;16.70;83.11
71344;BME280;59146;43.850;25.948;2023-05-17T08:06:01;100733.41;;;17.00;84.60
71344;BME280;59146;43.850;25.948;2023-05-17T08:08:26;100693.88;;;16.68;85.98
71344;BME280;59146;43.850;25.948;2023-05-17T08:10:52;100719.28;;;17.01;85.08
71344;BME280;59146;43.850;25.948;2023-05-17T08:13:17;100696.28;;;16.71;85.70
71344;BME280;59146;43.850;25.948;2023-05-17T08:15:43;100711.75;;;16.96;86.71
71344;BME280;59146;43.850;25.948;2023-05-17T08:18:08;100595.22;;;16.39;85.45
71344;BME280;59146;43.850;25.948;2023-05-17T08:20:34;100629.03;;;16.65;84.66
71344;BME280;59146;43.850;25.948;2023-05-17T08:22:59;100624.28;;;16.59;84.16
71344;BME280;59146;43.850;25.948;2023-05-17T08:25:25;100650.78;;;16.79;84.50
71344;BME280;59146;43.850;25.948;2023-05-17T08:27:50;100735.81;;;17.23;84.34
71344;BME280;59146;43.850;25.948;2023-05-17T08:30:16;100723.56;;;17.02;84.98
71344;BME280;59146;43.850;25.948;2023-05-17T08:32:41;100702.19;;;16.84;87.02
71344;BME280;59146;43.850;25.948;2023-05-17T08:35:09;100690.16;;;16.71;88.14
71344;BME280;59146;43.850;25.948;2023-05-17T08:37:34;100711.31;;;16.80;88.27
71344;BME280;59146;43.850;25.948;2023-05-17T08:40:00;100713.53;;;16.75;88.66
71344;BME280;59146;43.850;25.948;2023-05-17T08:42:26;100645.47;;;16.26;88.92
71344;BME280;59146;43.850;25.948;2023-05-17T08:44:54;100716.78;;;16.67;89.87
71344;BME280;59146;43.850;25.948;2023-05-17T08:47:20;100746.63;;;17.00;90.45
71344;BME280;59146;43.850;25.948;2023-05-17T08:49:58;100687.81;;;16.56;90.33
71344;BME280;59146;43.850;25.948;2023-05-17T08:52:28;100715.00;;;16.89;90.00
71344;BME280;59146;43.850;25.948;2023-05-17T08:54:54;100671.38;;;16.85;89.90
71344;BME280;59146;43.850;25.948;2023-05-17T08:57:21;100749.63;;;17.36;88.71
71344;BME280;59146;43.850;25.948;2023-05-17T08:59:48;100732.66;;;17.09;89.18
71344;BME280;59146;43.850;25.948;2023-05-17T09:02:16;100739.94;;;17.16;89.73
71344;BME280;59146;43.850;25.948;2023-05-17T09:04:42;100705.28;;;16.89;88.87
71344;BME280;59146;43.850;25.948;2023-05-17T09:07:07;100654.56;;;16.33;89.48
71344;BME280;59146;43.850;25.948;2023-05-17T09:09:33;100647.81;;;16.51;90.98
71344;BME280;59146;43.850;25.948;2023-05-17T09:11:59;100720.28;;;16.89;91.79
71344;BME280;59146;43.850;25.948;2023-05-17T09:14:32;100688.47;;;16.69;92.43
71344;BME280;59146;43.850;25.948;2023-05-17T09:16:57;100678.06;;;16.68;92.73
71344;BME280;59146;43.850;25.948;2023-05-17T09:19:23;100673.16;;;16.63;92.47
71344;BME280;59146;43.850;25.948;2023-05-17T09:21:48;100706.00;;;16.91;91.45
71344;BME280;59146;43.850;25.948;2023-05-17T09:24:17;100720.94;;;17.02;91.06
71344;BME280;59146;43.850;25.948;2023-05-17T09:26:44;100574.03;;;16.09;89.89
71344;BME280;59146;43.850;25.948;2023-05-17T09:29:12;100711.59;;;16.98;90.16
71344;BME280;59146;43.850;25.948;2023-05-17T09:31:39;100703.56;;;16.99;89.13
71344;BME280;59146;43.850;25.948;2023-05-17T09:34:04;100733.28;;;17.22;88.50
71344;BME280;59146;43.850;25.948;2023-05-17T09:36:34;100753.69;;;17.20;88.50
71344;BME280;59146;43.850;25.948;2023-05-17T09:39:01;100686.53;;;16.72;88.38
71344;BME280;59146;43.850;25.948;2023-05-17T09:41:31;100723.47;;;16.72;89.70
71344;BME280;59146;43.850;25.948;2023-05-17T09:43:59;100765.03;;;17.11;90.36
71344;BME280;59146;43.850;25.948;2023-05-17T09:46:25;100690.00;;;16.51;89.01
71344;BME280;59146;43.850;25.948;2023-05-17T09:48:53;100719.06;;;16.61;89.19
71344;BME280;59146;43.850;25.948;2023-05-17T09:51:41;100791.72;;;16.97;89.07
71344;BME280;59146;43.850;25.948;2023-05-17T09:54:07;100725.19;;;16.61;90.14
71344;BME280;59146;43.850;25.948;2023-05-17T09:56:34;100700.75;;;16.48;89.38
71344;BME280;59146;43.850;25.948;2023-05-17T09:59:00;100747.19;;;16.72;89.89
71344;BME280;59146;43.850;25.948;2023-05-17T10:01:27;100768.38;;;16.92;90.02
71344;BME280;59146;43.850;25.948;2023-05-17T10:03:53;100705.78;;;16.62;90.77
71344;BME280;59146;43.850;25.948;2023-05-17T10:06:21;100585.56;;;15.97;91.04
71344;BME280;59146;43.850;25.948;2023-05-17T10:08:52;100758.72;;;17.02;91.92
71344;BME280;59146;43.850;25.948;2023-05-17T10:11:28;100764.06;;;17.12;91.19
71344;BME280;59146;43.850;25.948;2023-05-17T10:16:47;100725.19;;;17.14;91.56
71344;BME280;59146;43.850;25.948;2023-05-17T10:19:13;100692.63;;;17.04;90.13
71344;BME280;59146;43.850;25.948;2023-05-17T10:21:39;100740.06;;;17.56;90.53
71344;BME280;59146;43.850;25.948;2023-05-17T10:24:07;100724.25;;;17.45;87.41
71344;BME280;59146;43.850;25.948;2023-05-17T10:26:34;100755.84;;;17.77;87.59
71344;BME280;59146;43.850;25.948;2023-05-17T10:29:00;100755.47;;;17.81;86.91
71344;BME280;59146;43.850;25.948;2023-05-17T10:31:31;100694.16;;;17.27;85.14
71344;BME280;59146;43.850;25.948;2023-05-17T10:33:59;100589.47;;;16.65;86.16
71344;BME280;59146;43.850;25.948;2023-05-17T10:36:25;100688.66;;;17.39;85.98
71344;BME280;59146;43.850;25.948;2023-05-17T10:38:51;100752.50;;;17.75;86.81
71344;BME280;59146;43.850;25.948;2023-05-17T10:41:18;100676.72;;;17.15;85.91
71344;BME280;59146;43.850;25.948;2023-05-17T10:43:47;100669.06;;;16.91;87.33
71344;BME280;59146;43.850;25.948;2023-05-17T10:46:17;100682.13;;;17.13;87.89
71344;BME280;59146;43.850;25.948;2023-05-17T10:48:52;100742.75;;;17.24;85.64
71344;BME280;59146;43.850;25.948;2023-05-17T10:51:22;100706.06;;;17.21;85.94
71344;BME280;59146;43.850;25.948;2023-05-17T10:56:56;100746.00;;;17.79;84.80
71344;BME280;59146;43.850;25.948;2023-05-17T10:59:27;100730.13;;;17.69;82.08
71344;BME280;59146;43.850;25.948;2023-05-17T11:02:05;100679.72;;;17.31;80.52
71344;BME280;59146;43.850;25.948;2023-05-17T11:12:39;100751.69;;;17.33;79.99
71344;BME280;59146;43.850;25.948;2023-05-17T11:15:13;100576.00;;;16.27;79.60
71344;BME280;59146;43.850;25.948;2023-05-17T11:20:09;100702.78;;;16.88;79.60
71344;BME280;59146;43.850;25.948;2023-05-17T11:22:55;100741.66;;;17.27;80.14
71344;BME280;59146;43.850;25.948;2023-05-17T11:25:23;100699.44;;;16.86;79.33
71344;BME280;59146;43.850;25.948;2023-05-17T11:27:50;100697.19;;;16.81;79.59
71344;BME280;59146;43.850;25.948;2023-05-17T11:30:29;100693.88;;;16.89;78.68
71344;BME280;59146;43.850;25.948;2023-05-17T11:33:04;100743.34;;;17.28;79.73
71344;BME280;59146;43.850;25.948;2023-05-17T11:35:34;100732.84;;;17.37;77.23
71344;BME280;59146;43.850;25.948;2023-05-17T11:38:21;100674.28;;;17.02;77.96
71344;BME280;59146;43.850;25.948;2023-05-17T11:40:49;100531.31;;;16.26;76.82
71344;BME280;59146;43.850;25.948;2023-05-17T11:43:21;100682.19;;;17.23;76.75
71344;BME280;59146;43.850;25.948;2023-05-17T11:48:16;100725.97;;;17.76;74.30
71344;BME280;59146;43.850;25.948;2023-05-17T11:50:44;100701.31;;;17.66;72.64
71344;BME280;59146;43.850;25.948;2023-05-17T11:53:10;100702.91;;;17.78;72.89
71344;BME280;59146;43.850;25.948;2023-05-17T11:55:38;100685.63;;;17.74;72.72
71344;BME280;59146;43.850;25.948;2023-05-17T11:58:06;100607.94;;;17.16;72.80
71344;BME280;59146;43.850;25.948;2023-05-17T12:00:31;100711.66;;;17.79;72.58
71344;BME280;59146;43.850;25.948;2023-05-17T12:02:57;100640.78;;;17.23;72.15
71344;BME280;59146;43.850;25.948;2023-05-17T12:05:23;100680.88;;;17.68;73.31
71344;BME280;59146;43.850;25.948;2023-05-17T12:07:49;100693.22;;;17.98;70.82
71344;BME280;59146;43.850;25.948;2023-05-17T12:10:17;100676.69;;;18.05;71.75
71344;BME280;59146;43.850;25.948;2023-05-17T12:12:42;100676.19;;;18.31;69.53
71344;BME280;59146;43.850;25.948;2023-05-17T12:15:08;100674.69;;;18.47;69.49
71344;BME280;59146;43.850;25.948;2023-05-17T12:17:37;100679.81;;;18.58;68.07
71344;BME280;59146;43.850;25.948;2023-05-17T12:20:09;100633.19;;;18.48;65.95
71344;BME280;59146;43.850;25.948;2023-05-17T12:22:51;100664.78;;;18.78;67.68
71344;BME280;59146;43.850;25.948;2023-05-17T12:25:18;100641.69;;;18.61;66.17
71344;BME280;59146;43.850;25.948;2023-05-17T12:27:44;100568.75;;;18.20;66.90
71344;BME280;59146;43.850;25.948;2023-05-17T12:30:13;100626.81;;;18.60;65.95
71344;BME280;59146;43.850;25.948;2023-05-17T12:32:39;100545.25;;;18.07;66.48
71344;BME280;59146;43.850;25.948;2023-05-17T12:35:05;100644.19;;;18.72;66.60
71344;BME280;59146;43.850;25.948;2023-05-17T12:37:31;100620.53;;;18.61;66.71
71344;BME280;59146;43.850;25.948;2023-05-17T12:39:58;100662.69;;;18.81;66.05
71344;BME280;59146;43.850;25.948;2023-05-17T12:42:25;100618.00;;;18.31;67.13
71344;BME280;59146;43.850;25.948;2023-05-17T12:44:51;100644.31;;;18.61;66.23
71344;BME280;59146;43.850;25.948;2023-05-17T12:47:16;100622.03;;;18.73;66.50
71344;BME280;59146;43.850;25.948;2023-05-17T12:49:54;100605.72;;;18.87;64.18
71344;BME280;59146;43.850;25.948;2023-05-17T12:52:20;100635.59;;;19.16;63.66
71344;BME280;59146;43.850;25.948;2023-05-17T12:54:45;100599.22;;;19.18;63.14
71344;BME280;59146;43.850;25.948;2023-05-17T12:57:14;100631.09;;;19.63;65.70
71344;BME280;59146;43.850;25.948;2023-05-17T12:59:50;100564.31;;;19.32;64.77
71344;BME280;59146;43.850;25.948;2023-05-17T13:02:16;100584.94;;;19.38;64.18
71344;BME280;59146;43.850;25.948;2023-05-17T13:04:43;100634.03;;;19.87;65.02
71344;BME280;59146;43.850;25.948;2023-05-17T13:07:08;100638.50;;;19.87;64.40
71344;BME280;59146;43.850;25.948;2023-05-17T13:09:44;100664.06;;;20.05;63.09